Siem Pilot — LCPF — position and weather

sailwx.info

Track history (hours):
 
Tides and Currents Weather Stations Pressure Air Temp Water Temp Dewpoint Dewpoint Depression Visibility Wind Speed Wind Dir Waves Ship Positions

Siem Pilot

Last reported at 2017-Feb-25 04:33 UTC. Time now 2017-Feb-25 05:20 UTC.
Position N 38°17' E 013°12'.

Length 88 m; draft 6.1 m.

Type: Law enforcement. MMSI: 257458000.

Date/timePositionNaut miles runAvg speedWind from/ knotsBaromVisibWave heightAir tempDewpointWater temp
2017-Feb-25 04:33N 38°17' E 013°12'1010.3
2017-Feb-25 03:33N 38°15' E 012°59'1010.2
2017-Feb-25 02:33N 38°14' E 012°46'1010.3
2017-Feb-25 01:32N 38°13' E 012°33'1010.2
2017-Feb-25 00:33N 38°12' E 012°20'1110.0
2017-Feb-24 23:28N 38°08' E 012°07'6110.2
2017-Feb-24 17:27N 37°08' E 012°20'2812.5
2017-Feb-24 15:11N 36°41' E 012°33'812.2
2017-Feb-24 14:33N 36°34' E 012°36'1212.0
2017-Feb-24 13:33N 36°23' E 012°42'1211.1
2017-Feb-24 12:27N 36°12' E 012°48'1010.7
2017-Feb-24 11:33N 36°03' E 012°52'1110.8
2017-Feb-24 10:33N 35°53' E 012°57'1111.4
2017-Feb-24 09:33N 35°42' E 013°02'1211.6
2017-Feb-24 08:33N 35°30' E 013°04'6412.3
2017-Feb-24 03:25N 34°31' E 012°38'  
2017-Feb-17 20:16N 36°39' E 015°31'  
Track history (hours):
 
Tides and Currents Weather Stations Pressure Air Temp Water Temp Dewpoint Dewpoint Depression Visibility Wind Speed Wind Dir Waves Ship Positions

Siem Pilot

Last reported at 2017-Feb-25 04:33 UTC. Time now 2017-Feb-25 05:20 UTC.
Position N 38°17' E 013°12'.

Length 88 m; draft 6.1 m.

Type: Law enforcement. MMSI: 257458000.

Date/timePositionNaut miles runAvg speedWind from/ knotsBaromVisibWave heightAir tempDewpointWater temp
2017-Feb-25 04:33N 38°17' E 013°12'1010.3
2017-Feb-25 03:33N 38°15' E 012°59'1010.2
2017-Feb-25 02:33N 38°14' E 012°46'1010.3
2017-Feb-25 01:32N 38°13' E 012°33'1010.2
2017-Feb-25 00:33N 38°12' E 012°20'1110.0
2017-Feb-24 23:28N 38°08' E 012°07'6110.2
2017-Feb-24 17:27N 37°08' E 012°20'2812.5
2017-Feb-24 15:11N 36°41' E 012°33'812.2
2017-Feb-24 14:33N 36°34' E 012°36'1212.0
2017-Feb-24 13:33N 36°23' E 012°42'1211.1
2017-Feb-24 12:27N 36°12' E 012°48'1010.7
2017-Feb-24 11:33N 36°03' E 012°52'1110.8
2017-Feb-24 10:33N 35°53' E 012°57'1111.4
2017-Feb-24 09:33N 35°42' E 013°02'1211.6
2017-Feb-24 08:33N 35°30' E 013°04'6412.3
2017-Feb-24 03:25N 34°31' E 012°38'  
2017-Feb-17 20:16N 36°39' E 015°31'  

Dump ship's entire track history